createdAt,value
2018-08-20T00:00:45.327Z,21.70
2018-08-20T00:03:13.567Z,21.60
2018-08-20T00:05:45.419Z,21.50
2018-08-20T00:08:13.724Z,21.40
2018-08-20T00:10:42.001Z,21.40
2018-08-20T00:13:10.263Z,21.30
2018-08-20T00:15:38.489Z,21.30
2018-08-20T00:18:06.743Z,21.20
2018-08-20T00:20:34.945Z,21.10
2018-08-20T00:23:03.139Z,21.10
2018-08-20T00:25:31.335Z,21.10
2018-08-20T00:27:59.651Z,21.20
2018-08-20T00:30:27.865Z,21.10
2018-08-20T00:32:56.054Z,21.10
2018-08-20T00:35:24.298Z,21.10
2018-08-20T00:37:53.265Z,21.10
2018-08-20T00:40:21.993Z,21.10
2018-08-20T00:42:50.252Z,21.10
2018-08-20T00:45:18.507Z,21.00
2018-08-20T00:47:46.703Z,21.00
2018-08-20T00:50:14.927Z,20.90
2018-08-20T00:52:43.588Z,20.90
2018-08-20T00:55:12.677Z,21.00
2018-08-20T00:57:41.255Z,20.90
2018-08-20T01:00:10.328Z,20.90
2018-08-20T01:02:38.527Z,20.90
2018-08-20T01:05:06.744Z,20.90
2018-08-20T01:07:35.219Z,20.90
2018-08-20T01:10:03.543Z,20.80
2018-08-20T01:12:31.773Z,20.80
2018-08-20T01:14:59.963Z,20.80
2018-08-20T01:17:28.155Z,20.80
2018-08-20T01:19:56.358Z,20.70
2018-08-20T01:22:24.555Z,20.70
2018-08-20T01:24:52.794Z,20.60
2018-08-20T01:27:27.680Z,20.60
2018-08-20T01:29:56.084Z,20.60
2018-08-20T01:32:24.350Z,20.50
2018-08-20T01:34:52.557Z,20.40
2018-08-20T01:37:21.520Z,20.40
2018-08-20T01:39:50.291Z,20.30
2018-08-20T01:42:18.783Z,20.20
2018-08-20T01:44:47.515Z,20.20
2018-08-20T01:47:15.721Z,20.10
2018-08-20T01:49:43.977Z,20.20
2018-08-20T01:52:12.189Z,20.10
2018-08-20T01:54:40.389Z,20.10
2018-08-20T01:57:08.573Z,20.10
2018-08-20T01:59:37.669Z,20.10
2018-08-20T02:02:05.977Z,20.00
2018-08-20T02:04:34.231Z,20.00
2018-08-20T02:07:02.503Z,20.00
2018-08-20T02:09:30.703Z,20.00
2018-08-20T02:11:58.935Z,20.00
2018-08-20T02:14:27.405Z,19.90
2018-08-20T02:16:55.772Z,20.00
2018-08-20T02:19:24.041Z,20.00
2018-08-20T02:21:52.237Z,19.90
2018-08-20T02:24:20.439Z,19.90
2018-08-20T02:26:48.625Z,19.90
2018-08-20T02:29:16.883Z,19.90
2018-08-20T02:31:45.194Z,19.90
2018-08-20T02:34:13.417Z,19.90
2018-08-20T02:36:41.683Z,19.90
2018-08-20T02:39:12.350Z,19.90
2018-08-20T02:41:41.028Z,20.00
2018-08-20T02:44:10.024Z,20.00
2018-08-20T02:46:45.212Z,20.00
2018-08-20T02:49:14.287Z,20.00
2018-08-20T02:51:42.484Z,20.00
2018-08-20T02:54:11.546Z,19.90
2018-08-20T02:56:40.109Z,19.90
2018-08-20T02:59:08.330Z,19.80
2018-08-20T03:01:36.725Z,19.80
2018-08-20T03:04:05.180Z,19.80
2018-08-20T03:06:33.440Z,19.80
2018-08-20T03:09:01.621Z,19.70
2018-08-20T03:11:30.016Z,19.70
2018-08-20T03:13:58.220Z,19.70
2018-08-20T03:16:26.450Z,19.80
2018-08-20T03:18:54.694Z,19.80
2018-08-20T03:21:22.928Z,19.80
2018-08-20T03:23:51.129Z,19.80
2018-08-20T03:26:19.350Z,19.90
2018-08-20T03:28:47.594Z,19.90
2018-08-20T03:31:15.852Z,19.80
2018-08-20T03:33:44.062Z,19.90
2018-08-20T03:36:12.262Z,19.80
2018-08-20T03:38:40.540Z,19.80
2018-08-20T03:41:08.767Z,19.80
2018-08-20T03:43:36.971Z,19.80
2018-08-20T03:46:05.376Z,19.70
2018-08-20T03:48:33.620Z,19.70
2018-08-20T03:51:02.004Z,19.70
2018-08-20T03:53:30.204Z,19.70
2018-08-20T03:55:58.416Z,19.60
2018-08-20T03:58:26.676Z,19.60
2018-08-20T04:00:54.928Z,19.60
2018-08-20T04:03:23.118Z,19.60
2018-08-20T04:05:51.380Z,19.60
2018-08-20T04:08:19.798Z,19.50
2018-08-20T04:10:48.060Z,19.50
2018-08-20T04:13:16.318Z,19.50
2018-08-20T04:15:44.528Z,19.50
2018-08-20T04:18:12.746Z,19.50
2018-08-20T04:20:40.946Z,19.50
2018-08-20T04:23:09.178Z,19.50
2018-08-20T04:25:37.377Z,19.40
2018-08-20T04:28:05.644Z,19.40
2018-08-20T04:30:33.933Z,19.40
2018-08-20T04:33:02.118Z,19.40
2018-08-20T04:35:30.325Z,19.40
2018-08-20T04:37:58.658Z,19.40
2018-08-20T04:40:26.879Z,19.50
2018-08-20T04:42:55.062Z,19.50
2018-08-20T04:45:23.298Z,19.50
2018-08-20T04:47:51.556Z,19.50
2018-08-20T04:50:20.004Z,19.50
2018-08-20T04:52:47.977Z,19.60
2018-08-20T04:55:16.176Z,19.60
2018-08-20T04:57:44.382Z,19.60
2018-08-20T05:00:12.602Z,19.60
2018-08-20T05:02:40.901Z,19.60
2018-08-20T05:05:09.148Z,19.70
2018-08-20T05:07:37.350Z,19.70
2018-08-20T05:10:05.802Z,19.80
2018-08-20T05:12:33.982Z,19.90
2018-08-20T05:15:02.188Z,20.00
2018-08-20T05:17:30.378Z,20.00
2018-08-20T05:19:58.586Z,20.10
2018-08-20T05:22:26.796Z,20.20
2018-08-20T05:24:54.976Z,20.20
2018-08-20T05:27:23.171Z,20.30
2018-08-20T05:29:51.406Z,20.30
2018-08-20T05:32:19.720Z,20.40
2018-08-20T05:34:48.058Z,20.40
2018-08-20T05:37:16.272Z,20.50
2018-08-20T05:39:44.462Z,20.50
2018-08-20T05:42:12.697Z,20.60
2018-08-20T05:44:40.915Z,20.70
2018-08-20T05:47:09.124Z,20.70
2018-08-20T05:49:37.352Z,20.80
2018-08-20T05:52:05.779Z,20.80
2018-08-20T05:54:33.962Z,20.90
2018-08-20T05:57:02.154Z,21.00
2018-08-20T05:59:30.366Z,21.00
2018-08-20T06:01:58.588Z,21.10
2018-08-20T06:04:26.814Z,21.20
2018-08-20T06:06:55.038Z,21.20
2018-08-20T06:09:23.242Z,21.30
2018-08-20T06:11:51.467Z,21.40
2018-08-20T06:14:19.773Z,21.50
2018-08-20T06:16:47.982Z,21.60
2018-08-20T06:19:16.182Z,21.60
2018-08-20T06:21:44.403Z,21.70
2018-08-20T06:24:12.786Z,21.70
2018-08-20T06:26:40.993Z,21.80
2018-08-20T06:29:09.217Z,21.80
2018-08-20T06:31:37.452Z,21.90
2018-08-20T06:34:05.771Z,21.90
2018-08-20T06:36:33.973Z,22.00
2018-08-20T06:39:02.174Z,22.00
2018-08-20T06:41:30.474Z,22.10
2018-08-20T06:43:58.665Z,22.20
2018-08-20T06:46:26.891Z,22.30
2018-08-20T06:48:55.155Z,22.40
2018-08-20T06:51:23.355Z,22.60
2018-08-20T06:53:51.576Z,22.70
2018-08-20T06:56:19.804Z,23.00
2018-08-20T06:58:48.020Z,23.10
2018-08-20T07:01:16.215Z,23.20
2018-08-20T07:03:44.425Z,23.40
2018-08-20T07:06:12.635Z,23.50
2018-08-20T07:08:40.852Z,23.60
2018-08-20T07:11:09.073Z,23.70
2018-08-20T07:13:37.866Z,23.80
2018-08-20T07:16:07.353Z,24.00
2018-08-20T07:18:35.577Z,24.10
2018-08-20T07:21:03.779Z,24.30
2018-08-20T07:23:32.109Z,24.50
2018-08-20T07:26:00.223Z,24.70
2018-08-20T07:28:28.430Z,24.80
2018-08-20T07:30:56.641Z,24.90
2018-08-20T07:33:24.817Z,25.00
2018-08-20T07:35:53.023Z,25.00
2018-08-20T07:38:21.275Z,25.00
2018-08-20T07:40:50.312Z,25.00
2018-08-20T07:43:18.536Z,25.00
2018-08-20T07:45:46.790Z,25.00
2018-08-20T07:48:14.987Z,24.80
2018-08-20T07:50:43.213Z,24.80
2018-08-20T07:53:11.459Z,24.80
2018-08-20T07:55:39.736Z,24.80
2018-08-20T07:58:08.153Z,24.80
2018-08-20T08:00:36.603Z,24.80
2018-08-20T08:03:04.845Z,24.90
2018-08-20T08:05:33.055Z,25.00
2018-08-20T08:08:01.345Z,25.10
2018-08-20T08:10:29.559Z,25.20
2018-08-20T08:12:57.771Z,25.20
2018-08-20T08:15:26.064Z,25.10
2018-08-20T08:17:54.294Z,25.10
2018-08-20T08:20:22.505Z,25.10
2018-08-20T08:22:50.704Z,25.00
2018-08-20T08:25:18.936Z,24.90
2018-08-20T08:27:47.143Z,24.90
2018-08-20T08:30:17.529Z,24.90
2018-08-20T08:32:46.094Z,25.00
2018-08-20T08:35:14.563Z,25.20
2018-08-20T08:37:42.858Z,25.20
2018-08-20T08:40:12.515Z,25.20
2018-08-20T08:42:40.747Z,25.20
2018-08-20T08:45:11.531Z,25.30
2018-08-20T08:47:39.787Z,25.30
2018-08-20T08:50:08.009Z,25.30
2018-08-20T08:52:36.383Z,25.30
2018-08-20T08:55:05.075Z,25.40
2018-08-20T08:57:33.299Z,25.60
2018-08-20T09:00:01.497Z,25.70
2018-08-20T09:02:29.705Z,25.90
2018-08-20T09:04:57.925Z,26.00
2018-08-20T09:07:26.144Z,26.30
2018-08-20T09:09:54.358Z,26.70
2018-08-20T09:12:22.594Z,27.40
2018-08-20T09:14:50.800Z,28.60
2018-08-20T09:17:18.997Z,29.50
2018-08-20T09:19:47.208Z,30.20
2018-08-20T09:22:15.420Z,30.40
2018-08-20T09:24:43.618Z,31.00
2018-08-20T09:27:11.840Z,31.80
2018-08-20T09:29:40.038Z,32.20
2018-08-20T09:32:08.242Z,32.50
2018-08-20T09:34:36.474Z,32.50
2018-08-20T09:37:05.100Z,33.20
2018-08-20T09:39:33.315Z,34.20
2018-08-20T09:42:01.542Z,35.10
2018-08-20T09:44:29.976Z,35.10
2018-08-20T09:46:58.149Z,34.60
2018-08-20T09:49:26.357Z,34.20
2018-08-20T09:51:54.553Z,34.30
2018-08-20T09:54:22.762Z,34.60
2018-08-20T09:56:50.976Z,35.10
2018-08-20T09:59:19.163Z,35.70
2018-08-20T10:01:47.388Z,36.30
2018-08-20T10:04:15.588Z,36.30
2018-08-20T10:06:43.802Z,36.60
2018-08-20T10:09:12.010Z,35.70
2018-08-20T10:11:40.192Z,35.00
2018-08-20T10:14:08.433Z,34.50
2018-08-20T10:16:36.655Z,33.80
2018-08-20T10:19:04.875Z,33.10
2018-08-20T10:21:33.073Z,33.00
2018-08-20T10:24:01.275Z,33.70
2018-08-20T10:26:29.478Z,34.60
2018-08-20T10:28:57.855Z,35.80
2018-08-20T10:31:26.046Z,36.60
2018-08-20T10:33:54.252Z,37.40
2018-08-20T10:36:22.451Z,37.70
2018-08-20T10:38:50.676Z,37.70
2018-08-20T10:41:18.877Z,37.50
2018-08-20T10:43:47.092Z,36.80
2018-08-20T10:46:19.371Z,36.90
2018-08-20T10:48:47.736Z,36.80
2018-08-20T10:51:15.993Z,36.20
2018-08-20T10:53:44.140Z,35.60
2018-08-20T10:56:12.391Z,35.00
2018-08-20T10:58:40.585Z,34.20
2018-08-20T11:01:09.355Z,33.70
2018-08-20T11:03:38.657Z,33.70
2018-08-20T11:06:06.871Z,33.50
2018-08-20T11:08:35.073Z,33.20
2018-08-20T11:11:03.287Z,32.80
2018-08-20T11:13:31.467Z,32.30
2018-08-20T11:15:59.663Z,31.90
2018-08-20T11:18:28.046Z,31.50
2018-08-20T11:20:56.063Z,31.10
2018-08-20T11:23:24.289Z,30.80
2018-08-20T11:25:52.501Z,30.70
2018-08-20T11:28:20.781Z,30.80
2018-08-20T11:30:48.977Z,31.00
2018-08-20T11:33:17.209Z,31.40
2018-08-20T11:35:45.402Z,31.60
2018-08-20T11:38:13.597Z,31.80
2018-08-20T11:40:41.816Z,31.90
2018-08-20T11:43:10.006Z,32.00
2018-08-20T11:45:38.202Z,31.90
2018-08-20T11:48:06.447Z,31.70
2018-08-20T11:50:34.656Z,31.20
2018-08-20T11:53:02.845Z,31.10
2018-08-20T11:55:31.067Z,31.70
2018-08-20T11:57:59.559Z,31.80
2018-08-20T12:00:27.755Z,32.80
2018-08-20T12:02:55.949Z,34.10
2018-08-20T12:05:24.153Z,34.40
2018-08-20T12:07:52.425Z,34.90
2018-08-20T12:10:20.638Z,34.70
2018-08-20T12:12:48.846Z,34.00
2018-08-20T12:15:17.091Z,33.70
2018-08-20T12:17:45.329Z,34.30
2018-08-20T12:20:13.544Z,34.60
2018-08-20T12:22:41.759Z,34.20
2018-08-20T12:25:12.037Z,34.30
2018-08-20T12:27:40.236Z,35.50
2018-08-20T12:30:09.419Z,37.20
2018-08-20T12:32:37.647Z,38.40
2018-08-20T12:35:06.117Z,39.50
2018-08-20T12:37:34.307Z,40.20
2018-08-20T12:40:02.666Z,40.30
2018-08-20T12:42:30.745Z,39.20
2018-08-20T12:44:58.963Z,38.00
2018-08-20T12:47:27.153Z,36.90
2018-08-20T12:49:55.359Z,36.00
2018-08-20T12:52:23.666Z,35.30
2018-08-20T12:54:51.893Z,34.80
2018-08-20T12:57:20.156Z,34.50
2018-08-20T12:59:52.887Z,33.90
2018-08-20T13:02:21.077Z,33.40
2018-08-20T13:04:49.319Z,33.00
2018-08-20T13:07:17.571Z,32.60
2018-08-20T13:09:45.794Z,32.40
2018-08-20T13:12:14.407Z,32.20
2018-08-20T13:14:42.608Z,32.10
2018-08-20T13:17:10.834Z,31.90
2018-08-20T13:19:39.351Z,31.70
2018-08-20T13:22:07.587Z,31.60
2018-08-20T13:24:35.796Z,31.50
2018-08-20T13:27:04.012Z,31.30
2018-08-20T13:29:32.215Z,31.10
2018-08-20T13:32:00.435Z,31.00
2018-08-20T13:34:28.750Z,31.10
2018-08-20T13:36:56.944Z,31.10
2018-08-20T13:39:25.191Z,31.10
2018-08-20T13:41:53.564Z,31.00
2018-08-20T13:44:21.880Z,30.80
2018-08-20T13:46:50.083Z,30.60
2018-08-20T13:49:18.368Z,30.50
2018-08-20T13:51:46.586Z,30.50
2018-08-20T13:54:14.785Z,30.50
2018-08-20T13:56:42.996Z,30.50
2018-08-20T13:59:11.234Z,30.50
2018-08-20T14:01:39.447Z,30.90
2018-08-20T14:04:07.665Z,31.30
2018-08-20T14:06:35.892Z,31.60
2018-08-20T14:09:05.758Z,32.30
2018-08-20T14:11:33.966Z,32.30
2018-08-20T14:14:02.151Z,32.30
2018-08-20T14:16:30.381Z,32.20
2018-08-20T14:18:58.718Z,32.20
2018-08-20T14:21:26.932Z,32.30
2018-08-20T14:23:55.130Z,32.30
2018-08-20T14:26:23.317Z,32.20
2018-08-20T14:28:51.554Z,32.10
2018-08-20T14:31:19.808Z,32.10
2018-08-20T14:33:48.079Z,32.10
2018-08-20T14:36:16.282Z,32.10
2018-08-20T14:38:44.498Z,32.00
2018-08-20T14:41:12.711Z,32.20
2018-08-20T14:43:40.940Z,32.30
2018-08-20T14:46:26.580Z,32.40
2018-08-20T14:48:54.785Z,32.60
2018-08-20T14:51:22.970Z,33.10
2018-08-20T14:53:51.190Z,33.10
2018-08-20T14:56:19.454Z,32.90
2018-08-20T14:58:47.656Z,32.60
2018-08-20T15:01:15.870Z,32.30
2018-08-20T15:03:44.100Z,32.10
2018-08-20T15:06:12.320Z,31.80
2018-08-20T15:08:40.600Z,31.50
2018-08-20T15:11:09.012Z,31.20
2018-08-20T15:13:37.296Z,31.00
2018-08-20T15:16:05.591Z,31.00
2018-08-20T15:18:33.995Z,30.90
2018-08-20T15:21:02.190Z,30.90
2018-08-20T15:23:30.436Z,30.80
2018-08-20T15:25:58.678Z,30.70
2018-08-20T15:28:26.887Z,30.60
2018-08-20T15:30:55.126Z,30.60
2018-08-20T15:33:23.339Z,30.60
2018-08-20T15:35:51.846Z,30.50
2018-08-20T15:38:20.052Z,30.30
2018-08-20T15:40:48.509Z,30.20
2018-08-20T15:43:16.720Z,30.60
2018-08-20T15:45:44.968Z,30.90
2018-08-20T15:48:13.254Z,31.00
2018-08-20T15:50:41.517Z,31.00
2018-08-20T15:53:09.761Z,31.00
2018-08-20T15:55:37.943Z,30.90
2018-08-20T15:58:06.265Z,30.70
2018-08-20T16:00:34.483Z,30.60
2018-08-20T16:03:02.727Z,30.50
2018-08-20T16:05:30.914Z,30.50
2018-08-20T16:07:59.288Z,30.40
2018-08-20T16:10:27.585Z,30.40
2018-08-20T16:12:55.847Z,30.50
2018-08-20T16:15:24.015Z,30.50
2018-08-20T16:17:52.289Z,30.50
2018-08-20T16:20:20.534Z,30.40
2018-08-20T16:22:48.727Z,30.30
2018-08-20T16:25:16.955Z,30.10
2018-08-20T16:27:45.148Z,29.90
2018-08-20T16:30:14.154Z,29.80
2018-08-20T16:32:42.356Z,29.80
2018-08-20T16:35:11.974Z,29.80
2018-08-20T16:37:40.787Z,29.70
2018-08-20T16:40:09.026Z,29.70
2018-08-20T16:42:37.234Z,29.70
2018-08-20T16:45:06.908Z,29.70
2018-08-20T16:47:35.354Z,29.70
2018-08-20T16:50:03.622Z,29.60
2018-08-20T16:52:31.820Z,29.60
2018-08-20T16:55:00.045Z,29.50
2018-08-20T16:57:28.258Z,29.50
2018-08-20T16:59:56.549Z,29.40
2018-08-20T17:02:28.110Z,29.40
2018-08-20T17:04:56.376Z,29.30
2018-08-20T17:07:24.562Z,29.10
2018-08-20T17:09:53.081Z,29.00
2018-08-20T17:12:21.299Z,28.90
2018-08-20T17:14:49.622Z,28.70
2018-08-20T17:17:17.800Z,28.60
2018-08-20T17:19:46.697Z,28.50
2018-08-20T17:22:15.051Z,28.40
2018-08-20T17:24:43.255Z,28.20
2018-08-20T17:27:11.929Z,28.10
2018-08-20T17:29:40.171Z,28.00
2018-08-20T17:32:09.219Z,27.90
2018-08-20T17:34:39.441Z,27.80
2018-08-20T17:37:07.632Z,27.70
2018-08-20T17:39:50.103Z,27.60
2018-08-20T17:42:18.395Z,27.60
2018-08-20T17:44:46.693Z,27.50
2018-08-20T17:47:19.161Z,27.40
2018-08-20T17:49:47.456Z,27.40
2018-08-20T17:52:15.641Z,27.30
2018-08-20T17:54:43.875Z,27.20
2018-08-20T17:57:12.104Z,27.10
2018-08-20T17:59:40.403Z,27.00
2018-08-20T18:02:12.900Z,27.00
2018-08-20T18:04:41.126Z,26.90
2018-08-20T18:07:09.353Z,26.80
2018-08-20T18:09:37.556Z,26.70
2018-08-20T18:12:05.773Z,26.70
2018-08-20T18:14:33.967Z,26.60
2018-08-20T18:17:02.193Z,26.60
2018-08-20T18:19:30.424Z,26.50
2018-08-20T18:21:58.695Z,26.40
2018-08-20T18:24:26.918Z,26.30
2018-08-20T18:26:56.496Z,26.20
2018-08-20T18:29:24.738Z,26.10
2018-08-20T18:31:53.762Z,26.10
2018-08-20T18:34:21.967Z,26.00
2018-08-20T18:36:50.472Z,25.90
2018-08-20T18:39:18.723Z,25.80
2018-08-20T18:41:50.284Z,25.80
2018-08-20T18:44:18.727Z,25.70
2018-08-20T18:46:46.962Z,25.60
2018-08-20T18:49:15.189Z,25.60
2018-08-20T18:51:43.727Z,25.50
2018-08-20T18:54:12.040Z,25.50
2018-08-20T18:56:40.138Z,25.40
2018-08-20T18:59:08.635Z,25.30
2018-08-20T19:01:37.882Z,25.30
2018-08-20T19:04:06.110Z,25.20
2018-08-20T19:06:34.351Z,25.20
2018-08-20T19:09:02.731Z,25.10
2018-08-20T19:11:30.937Z,25.10
2018-08-20T19:14:04.457Z,25.00
2018-08-20T19:16:36.882Z,25.00
2018-08-20T19:19:06.300Z,24.90
2018-08-20T19:21:38.845Z,24.80
2018-08-20T19:24:07.900Z,24.80
2018-08-20T19:26:36.427Z,24.80
2018-08-20T19:29:22.854Z,24.70
2018-08-20T19:31:51.058Z,24.70
2018-08-20T19:34:19.255Z,24.60
2018-08-20T19:36:47.470Z,24.50
2018-08-20T19:39:15.702Z,24.50
2018-08-20T19:41:43.938Z,24.40
2018-08-20T19:44:12.169Z,24.40
2018-08-20T19:46:40.380Z,24.30
2018-08-20T19:49:12.458Z,24.30
2018-08-20T19:51:42.077Z,24.20
2018-08-20T19:54:12.499Z,24.20
2018-08-20T19:56:40.746Z,24.20
2018-08-20T19:59:09.708Z,24.20
2018-08-20T20:01:37.988Z,24.10
2018-08-20T20:04:06.194Z,24.10
2018-08-20T20:06:34.428Z,24.10
2018-08-20T20:09:07.731Z,24.10
2018-08-20T20:11:41.143Z,24.10
2018-08-20T20:14:09.403Z,24.20
2018-08-20T20:16:43.084Z,24.20
2018-08-20T20:19:11.799Z,24.20
2018-08-20T20:21:40.014Z,24.20
2018-08-20T20:24:08.986Z,24.20
2018-08-20T20:26:37.168Z,24.20
2018-08-20T20:29:06.673Z,24.20
2018-08-20T20:31:34.912Z,24.20
2018-08-20T20:34:03.350Z,24.20
2018-08-20T20:36:32.266Z,24.20
2018-08-20T20:39:00.813Z,24.20
2018-08-20T20:41:29.070Z,24.10
2018-08-20T20:43:57.302Z,24.10
2018-08-20T20:46:26.120Z,24.10
2018-08-20T20:48:54.496Z,24.10
2018-08-20T20:51:22.676Z,24.10
2018-08-20T20:53:50.885Z,24.10
2018-08-20T20:56:19.104Z,24.20
2018-08-20T20:58:47.308Z,24.10
2018-08-20T21:01:15.665Z,24.10
2018-08-20T21:03:43.769Z,24.10
2018-08-20T21:06:11.980Z,24.10
2018-08-20T21:08:46.258Z,24.10
2018-08-20T21:11:15.369Z,24.10
2018-08-20T21:13:44.016Z,24.10
2018-08-20T21:16:13.704Z,24.00
2018-08-20T21:18:49.320Z,24.00
2018-08-20T21:21:18.294Z,23.90
2018-08-20T21:23:46.540Z,23.90
2018-08-20T21:26:14.940Z,23.90
2018-08-20T21:28:51.410Z,23.90
2018-08-20T21:31:20.830Z,23.90
2018-08-20T21:33:53.640Z,23.90
2018-08-20T21:36:21.828Z,23.90
2018-08-20T21:38:50.069Z,24.00
2018-08-20T21:41:23.182Z,24.00
2018-08-20T21:43:51.542Z,24.00
2018-08-20T21:46:19.751Z,24.00
2018-08-20T21:48:48.052Z,24.00
2018-08-20T21:51:21.635Z,24.00
2018-08-20T21:53:49.978Z,24.00
2018-08-20T21:56:18.186Z,24.00
2018-08-20T21:58:46.396Z,24.00
2018-08-20T22:01:15.885Z,23.90
2018-08-20T22:03:44.456Z,23.90
2018-08-20T22:06:13.168Z,23.90
2018-08-20T22:08:41.444Z,23.80
2018-08-20T22:11:10.762Z,23.80
2018-08-20T22:13:39.130Z,23.80
2018-08-20T22:16:15.998Z,23.80
2018-08-20T22:18:45.439Z,23.80
2018-08-20T22:21:14.864Z,23.80
2018-08-20T22:23:44.078Z,23.80
2018-08-20T22:26:14.598Z,23.80
2018-08-20T22:28:43.142Z,23.80
2018-08-20T22:31:11.348Z,23.70
2018-08-20T22:33:39.708Z,23.70
2018-08-20T22:36:08.826Z,23.70
2018-08-20T22:38:42.530Z,23.60
2018-08-20T22:41:10.839Z,23.60
2018-08-20T22:43:39.054Z,23.60
2018-08-20T22:46:07.278Z,23.60
2018-08-20T22:48:35.478Z,23.60
2018-08-20T22:51:13.746Z,23.60
2018-08-20T22:53:45.084Z,23.60
2018-08-20T22:56:21.470Z,23.60
2018-08-20T22:58:49.698Z,23.60
2018-08-20T23:01:18.030Z,23.60
2018-08-20T23:03:46.240Z,23.70
2018-08-20T23:06:14.456Z,23.70
2018-08-20T23:08:42.746Z,23.60
2018-08-20T23:11:11.090Z,23.60
2018-08-20T23:13:39.300Z,23.50
2018-08-20T23:16:07.513Z,23.50
2018-08-20T23:18:35.794Z,23.50
2018-08-20T23:21:04.060Z,23.50
2018-08-20T23:23:34.714Z,23.50
2018-08-20T23:26:06.630Z,23.60
2018-08-20T23:28:36.440Z,23.60
2018-08-20T23:31:04.655Z,23.60
2018-08-20T23:33:33.670Z,23.60
2018-08-20T23:36:01.907Z,23.60
2018-08-20T23:38:30.107Z,23.60
2018-08-20T23:40:58.935Z,23.60
2018-08-20T23:43:27.419Z,23.60
2018-08-20T23:45:55.621Z,23.60
2018-08-20T23:48:24.029Z,23.60
2018-08-20T23:51:00.014Z,23.70
2018-08-20T23:53:28.870Z,23.60
2018-08-20T23:55:57.393Z,23.70
2018-08-20T23:58:25.591Z,23.70
